Anza Borrego Desert State Park, California Weather observations

Data are for 10 minute period ending at time listed.
 Day   Time   Solar   Ave.   Ave.  Ave.  Vector  Max.   Baro.   Total    
  of    of     Rad.   Air    Rel.  Wind   Wind   Wind  Press.  Precip.   
Year   Day            Temp.  Hum.  Speed  Dir.   Gust                    
2016   (PST)  Kw/m2    F      %     mph   deg.    mph    mb.     in.     
-------------------------------------------------------------------------
 342    5:20   0.00   48.2    60    1.5   286     2.3   983.2    0.00 
 342    5:30   0.00   51.4    55    0.7    80     2.3   983.3    0.00 
 342    5:40   0.00   50.6    57    4.2   160     7.4   983.5    0.00 
 342    5:50   0.00   51.1    56    4.4   205     9.1   983.6    0.00 
 342    6:00   0.00   52.9    53    5.5   207     9.0   983.6    0.00 
 342    6:10   0.00   53.0    52    1.7   244     3.4   983.8    0.00 
 342    6:20   0.00   51.6    55    1.1   127     3.0   984.0    0.00 
 342    6:30   0.00   51.7    55    1.7   171     3.7   984.2    0.00 
 342    6:40   0.00   51.3    56    4.1   250     6.6   984.3    0.00 
 342    6:50   0.01   51.7    55    4.0   250     6.1   984.5    0.00 
 342    7:00   0.02   53.1    53    3.0   246     5.1   984.6    0.00 
 342    7:10   0.04   53.9    52    3.9   237     5.4   984.8    0.00 
 342    7:20   0.07   54.2    52    3.3   215     6.2   985.0    0.00 
 342    7:30   0.08   54.4    52    5.0   229     6.9   985.2    0.00 
 342    7:40   0.09   55.5    49    5.7   191     8.7   985.4    0.00 
 342    7:50   0.10   55.9    49    6.0   183     7.3   985.8    0.00 
 342    8:00   0.10   56.0    49    6.6   189     8.8   986.0    0.00 
 342    8:10   0.11   56.6    48    5.1   205     7.6   986.1    0.00 
 342    8:20   0.16   57.9    46    2.8   208     4.7   986.2    0.00 
 342    8:30   0.20   59.3    43    4.3   194     5.8   986.4    0.00 
 342    8:40   0.23   59.6    43    3.1   241     4.5   986.7    0.00 
 342    8:50   0.34   60.9    41    5.3   184     7.6   986.9    0.00 
 342    9:00   0.34   61.9    39    4.9   156     8.9   987.1    0.00 
 342    9:10   0.35   62.2    38    3.6   146     5.0   987.3    0.00 
 342    9:20   0.41   62.9    37    3.1   138     5.7   987.4    0.00 
 342    9:30   0.42   63.6    37    3.4   153     5.5   987.6    0.00 
 342    9:40   0.43   64.3    36    2.9   168     5.2   987.7    0.00 
 342    9:50   0.39   63.4    36    3.5   106     5.6   987.8    0.00 
 342   10:00   0.47   62.9    36    4.4    82     7.5   987.9    0.00 
 342   10:10   0.54   63.6    36    3.3    85     6.3   987.8    0.00 
 342   10:20   0.45   64.4    35    3.4   134     6.8   987.7    0.00 
 342   10:30   0.55   64.0    34    4.3   135     6.8   987.6    0.00 
 342   10:40   0.48   64.4    33    3.3   112     5.8   987.4    0.00 
 342   10:50   0.44   64.7    33    4.4    88     7.4   987.2    0.00 
 342   11:00   0.45   64.2    33    4.1   100     6.9   987.2    0.00 
 342   11:10   0.62   64.8    33    4.0    98     7.0   987.2    0.00 
 342   11:20   0.61   65.6    31    6.4   106    11.5   987.0    0.00 
 342   11:30   0.55   65.2    32    6.3   132    11.2   986.9    0.00 
 342   11:40   0.28   64.8    33    6.4   127    11.0   986.7    0.00 
 342   11:50   0.30   64.1    34    6.5   120    11.0   986.7    0.00 
 342   12:00   0.23   64.1    34    6.1   129    12.0   986.8    0.00 
 342   12:10   0.22   63.8    34    7.0   123    11.9   986.6    0.00 
 342   12:20   0.23   63.8    34    5.9   108    10.4   986.4    0.00 
 342   12:30   0.21   63.9    34    5.6   114     8.8   986.4    0.00 
 342   12:40   0.30   63.8    33    5.7   129     9.6   986.3    0.00 
 342   12:50   0.23   63.9    31    7.4   131     9.9   986.4    0.00 
 342   13:00   0.15   63.5    31    5.9   130     9.9   986.4    0.00 
 342   13:10   0.42   64.0    31    4.4   121     7.1   986.4    0.00 
 342   13:20   0.50   65.3    29    5.3   125     8.0   986.4    0.00 
 342   13:30   0.18   65.1    29    4.5   120     9.6   986.4    0.00 
 342   13:40   0.13   63.5    32    5.7   118     9.4   986.3    0.00 
 342   13:50   0.10   63.3    33    4.4   138     7.6   986.3    0.00 
 342   14:00   0.16   63.6    32    4.1   155     7.7   986.3    0.00 
 342   14:10   0.33   64.3    32    4.0   147     8.9   986.4    0.00 
 342   14:20   0.31   64.6    31    6.1   137     9.4   986.5    0.00 
 342   14:30   0.45   65.0    30    6.3   123     9.8   986.5    0.00 
 342   14:40   0.17   64.5    31    7.1   139    11.9   986.5    0.00 
 342   14:50   0.10   63.4    31    7.4   146    11.3   986.7    0.00 
 342   15:00   0.20   63.4    30    7.8   150    11.0   986.9    0.00 
 342   15:10   0.14   63.5    28    8.9   151    11.5   987.0    0.00 
 342   15:20   0.10   63.0    28    8.0   145    11.0   987.1    0.00 
 342   15:30   0.07   62.8    27    7.5   157    10.3   987.3    0.00 
 342   15:40   0.05   62.5    27    7.6   155    10.9   987.4    0.00 
 342   15:50   0.04   62.2    28    7.7   147    10.6   987.2    0.00 
 342   16:00   0.03   61.8    27    6.8   152     9.2   987.3    0.00 
 342   16:10   0.02   61.5    27    6.5   162     8.6   987.3    0.00 
 342   16:20   0.01   60.9    27    4.9   156     6.9   987.3    0.00 
 342   16:30   0.00   59.9    27    4.0   163     5.9   987.3    0.00 
 342   16:40   0.00   58.8    29    4.1   184     5.6   987.3    0.00 
 342   16:50   0.00   57.3    30    3.8   209     5.0   987.3    0.00 
 342   17:00   0.00   54.9    34    4.4   226     6.0   987.2    0.00 
 342   17:10   0.00   55.0    34    5.5   233     6.9   987.2    0.00 
 342   17:20   0.00   55.6    33    6.4   239     7.3   987.4    0.00 
 342   17:30   0.00   56.1    32    7.2   237     8.9   987.6    0.00 
 342   17:40   0.00   56.5    32    8.5   238     9.7   987.8    0.00 
 342   17:50   0.00   55.6    33    7.6   239     9.5   987.9    0.00 
 342   18:00   0.00   55.3    34    5.9   242     8.7   988.0    0.00 
 342   18:10   0.00   55.0    35    6.0   252     8.5   988.1    0.00 
 342   18:20   0.00   54.9    35    6.2   247     7.8   988.1    0.00 
 342   18:30   0.00   56.2    34    8.0   245    10.3   988.2    0.00 
 342   18:40   0.00   56.5    34    6.0   272     8.6   988.3    0.00 
 342   18:50   0.00   56.7    33    5.8   265     7.9   988.5    0.00 
 342   19:00   0.00   56.8    33    6.4   250     8.3   988.6    0.00 
 342   19:10   0.00   56.5    33    3.4   291     6.7   988.6    0.00 
 342   19:20   0.00   56.3    33    2.7   336     3.9   988.8    0.00 
 342   19:30   0.00   54.8    33    2.8   340     4.0   988.8    0.00 
 342   19:40   0.00   53.5    35    2.2   250     4.4   988.9    0.00 
 342   19:50   0.00   53.1    34    4.1   257     5.5   989.0    0.00 
 342   20:00   0.00   53.9    34    4.1   253     5.2   989.1    0.00 
 342   20:10   0.00   54.6    33    3.5   211     6.0   989.2    0.00 
 342   20:20   0.00   55.0    33    5.4   248     7.9   989.1    0.00 
 342   20:30   0.00   53.2    35    6.5   246     8.3   989.0    0.00 
 342   20:40   0.00   51.6    37    7.2   250     8.0   989.0    0.00 
 342   20:50   0.00   51.9    35    8.3   243    10.2   989.2    0.00 
 342   21:00   0.00   53.6    32    8.4   240    11.0   989.3    0.00 
 342   21:10   0.00   54.3    31    9.6   236    11.8   989.4    0.00 
 342   21:20   0.00   55.3    30   10.4   234    13.2   989.4    0.00 
 342   21:30   0.00   54.8    30    7.4   228    10.8   989.5    0.00 
 342   21:40   0.00   54.4    30    5.8   237     9.9   989.6    0.00 
 342   21:50   0.00   54.6    29    6.5   242     8.8   989.6    0.00 
 342   22:00   0.00   54.4    30    6.2   265     8.6   989.5    0.00 
 342   22:10   0.00   55.4    30    5.1   267     9.9   989.6    0.00 
 342   22:20   0.00   56.7    29    3.7   248     8.1   989.7    0.00 
 342   22:30   0.00   54.6    30    2.5   255     4.3   989.7    0.00 
 342   22:40   0.00   52.1    32    2.5   250     4.8   989.5    0.00 
 342   22:50   0.00   52.2    32    2.5   263     3.8   989.4    0.00 
 342   23:00   0.00   51.4    32    2.0   263     3.7   989.4    0.00 
 342   23:10   0.00   52.6    31    2.2   221     4.3   989.2    0.00 
 342   23:20   0.00   51.1    32    2.1   273     3.7   989.2    0.00 
 342   23:30   0.00   52.8    30    3.7   231     5.6   989.1    0.00 
 342   23:40   0.00   52.9    30    3.8   242     5.6   989.1    0.00 
 342   23:50   0.00   53.2    30    3.8   252     5.6   989.0    0.00 
 343    0:00   0.00   53.0    34    2.6   271     3.9   989.0    0.00 
 343    0:10   0.00   51.1    33    2.8   249     4.2   989.0    0.00 
 343    0:20   0.00   48.7    36    3.0   254     4.9   988.8    0.00 
 343    0:30   0.00   48.5    36    3.4   256     5.2   988.8    0.00 
 343    0:40   0.00   49.1    36    4.2   247     5.5   988.7    0.00 
 343    0:50   0.00   48.9    35    5.7   250     7.3   988.7    0.00 
 343    1:00   0.00   49.4    35    6.1   249     7.3   988.8    0.00 
 343    1:10   0.00   48.4    37    7.4   242     8.6   988.9    0.00 
 343    1:20   0.00   49.3    36    7.6   244     9.5   989.0    0.00 
 343    1:30   0.00   48.7    37    2.4   224     5.1   989.1    0.00 
 343    1:40   0.00   50.0    36    2.6   256     4.7   989.2    0.00 
 343    1:50   0.00   51.4    34    4.4   234     5.5   989.2    0.00 
 343    2:00   0.00   51.6    34    5.1   240     7.1   989.2    0.00 
 343    2:10   0.00   50.6    35    4.2   244     6.4   989.2    0.00 
 343    2:20   0.00   48.5    37    4.2   219     5.5   989.2    0.00 
 343    2:30   0.00   48.3    38    2.9   267     4.4   989.2    0.00 
 343    2:40   0.00   48.8    37    2.8   344     4.1   989.2    0.00 
 343    2:50   0.00   49.2    36    1.5   305     2.5   989.1    0.00 
 343    3:00   0.00   50.1    35    1.6   284     2.6   989.0    0.00 
 343    3:10   0.00   48.2    38    1.0   227     3.1   989.1    0.00 
 343    3:20   0.00   47.4    38    0.9   209     2.3   989.1    0.00 
 343    3:30   0.00   46.9    38    1.7   176     3.1   989.1    0.00 
 343    3:40   0.00   46.8    39    2.2   221     3.6   989.1    0.00 
 343    3:50   0.00   45.3    41    2.7   226     3.8   989.1    0.00 
 343    4:00   0.00   46.2    40    1.1   256     1.7   989.0    0.00 
 343    4:10   0.00   45.0    42    2.0   313     3.1   989.1    0.00 
 343    4:20   0.00   46.2    40    1.9   351     3.6   989.2    0.00 
 343    4:30   0.00   47.8    38    1.2   240     2.8   989.3    0.00 
 343    4:40   0.00   46.8    40    1.6   230     3.1   989.4    0.00 
 343    4:50   0.00   46.7    39    1.8   228     2.6   989.3    0.00 
 343    5:00   0.00   45.7    41    2.1   236     2.6   989.4    0.00 
 343    5:10   0.00   45.6    41    2.4   232     4.3   989.5    0.00 

Return to Anza Borrego Desert State Park graphs page.


Western Regional Climate Center,wrcc@dri.edu